sensor_id;sensor_type;location;lat;lon;timestamp;temperature;humidity
5210;DHT22;2624;48.048;11.706;2024-03-29T00:04:06;3.80;99.90
5210;DHT22;2624;48.048;11.706;2024-03-29T00:09:07;3.60;99.90
5210;DHT22;2624;48.048;11.706;2024-03-29T00:14:08;3.50;99.90
5210;DHT22;2624;48.048;11.706;2024-03-29T00:19:10;3.40;99.90
5210;DHT22;2624;48.048;11.706;2024-03-29T00:24:11;3.50;99.90
5210;DHT22;2624;48.048;11.706;2024-03-29T00:29:12;3.50;99.90
5210;DHT22;2624;48.048;11.706;2024-03-29T00:34:14;3.40;99.90
5210;DHT22;2624;48.048;11.706;2024-03-29T00:39:15;3.30;99.90
5210;DHT22;2624;48.048;11.706;2024-03-29T00:44:16;3.40;99.90
5210;DHT22;2624;48.048;11.706;2024-03-29T00:49:18;3.30;99.90
5210;DHT22;2624;48.048;11.706;2024-03-29T00:54:19;3.20;99.90
5210;DHT22;2624;48.048;11.706;2024-03-29T00:59:20;3.20;99.90
5210;DHT22;2624;48.048;11.706;2024-03-29T01:04:23;3.10;99.90
5210;DHT22;2624;48.048;11.706;2024-03-29T01:09:23;2.70;99.90
5210;DHT22;2624;48.048;11.706;2024-03-29T01:14:24;2.80;99.90
5210;DHT22;2624;48.048;11.706;2024-03-29T01:19:27;3.00;99.90
5210;DHT22;2624;48.048;11.706;2024-03-29T01:24:28;3.00;99.90
5210;DHT22;2624;48.048;11.706;2024-03-29T01:29:29;3.00;99.90
5210;DHT22;2624;48.048;11.706;2024-03-29T01:34:31;3.00;99.90
5210;DHT22;2624;48.048;11.706;2024-03-29T01:39:32;2.80;99.90
5210;DHT22;2624;48.048;11.706;2024-03-29T01:44:33;2.70;99.90
5210;DHT22;2624;48.048;11.706;2024-03-29T01:49:36;2.60;99.90
5210;DHT22;2624;48.048;11.706;2024-03-29T01:54:38;2.80;99.90
5210;DHT22;2624;48.048;11.706;2024-03-29T01:59:42;2.70;99.90
5210;DHT22;2624;48.048;11.706;2024-03-29T02:04:49;2.80;99.90
5210;DHT22;2624;48.048;11.706;2024-03-29T02:09:51;2.80;99.90
5210;DHT22;2624;48.048;11.706;2024-03-29T02:14:53;2.80;99.90
5210;DHT22;2624;48.048;11.706;2024-03-29T02:19:56;2.40;99.90
5210;DHT22;2624;48.048;11.706;2024-03-29T02:25:00;2.50;99.90
5210;DHT22;2624;48.048;11.706;2024-03-29T02:30:02;2.50;99.90
5210;DHT22;2624;48.048;11.706;2024-03-29T02:35:04;2.50;99.90
5210;DHT22;2624;48.048;11.706;2024-03-29T02:40:08;2.30;99.90
5210;DHT22;2624;48.048;11.706;2024-03-29T02:45:10;2.30;99.90
5210;DHT22;2624;48.048;11.706;2024-03-29T02:50:14;2.30;99.90
5210;DHT22;2624;48.048;11.706;2024-03-29T02:55:18;2.70;99.90
5210;DHT22;2624;48.048;11.706;2024-03-29T03:00:20;2.60;99.90
5210;DHT22;2624;48.048;11.706;2024-03-29T03:05:22;2.50;99.90
5210;DHT22;2624;48.048;11.706;2024-03-29T03:10:25;2.50;99.90
5210;DHT22;2624;48.048;11.706;2024-03-29T03:15:45;2.50;99.90
5210;DHT22;2624;48.048;11.706;2024-03-29T03:20:50;2.60;99.90
5210;DHT22;2624;48.048;11.706;2024-03-29T03:25:58;2.80;99.90
5210;DHT22;2624;48.048;11.706;2024-03-29T03:31:01;3.00;99.90
5210;DHT22;2624;48.048;11.706;2024-03-29T03:36:03;3.00;99.90
5210;DHT22;2624;48.048;11.706;2024-03-29T03:41:07;3.00;99.90
5210;DHT22;2624;48.048;11.706;2024-03-29T03:46:08;3.10;99.90
5210;DHT22;2624;48.048;11.706;2024-03-29T03:51:10;3.00;99.90
5210;DHT22;2624;48.048;11.706;2024-03-29T03:56:13;2.90;99.90
5210;DHT22;2624;48.048;11.706;2024-03-29T04:01:15;2.80;99.90
5210;DHT22;2624;48.048;11.706;2024-03-29T04:06:17;2.80;99.90
5210;DHT22;2624;48.048;11.706;2024-03-29T04:11:20;2.90;99.90
5210;DHT22;2624;48.048;11.706;2024-03-29T04:16:22;2.90;99.90
5210;DHT22;2624;48.048;11.706;2024-03-29T04:21:24;2.90;99.90
5210;DHT22;2624;48.048;11.706;2024-03-29T04:26:27;2.80;99.90
5210;DHT22;2624;48.048;11.706;2024-03-29T04:31:29;2.70;99.90
5210;DHT22;2624;48.048;11.706;2024-03-29T04:36:31;2.50;99.90
5210;DHT22;2624;48.048;11.706;2024-03-29T04:41:34;2.60;99.90
5210;DHT22;2624;48.048;11.706;2024-03-29T04:46:37;2.50;99.90
5210;DHT22;2624;48.048;11.706;2024-03-29T04:51:39;2.80;99.90
5210;DHT22;2624;48.048;11.706;2024-03-29T04:56:44;3.00;99.90
5210;DHT22;2624;48.048;11.706;2024-03-29T05:01:46;2.90;99.90
5210;DHT22;2624;48.048;11.706;2024-03-29T05:06:51;2.90;99.90
5210;DHT22;2624;48.048;11.706;2024-03-29T05:11:55;2.90;99.90
5210;DHT22;2624;48.048;11.706;2024-03-29T05:16:56;2.80;99.90
5210;DHT22;2624;48.048;11.706;2024-03-29T05:21:58;2.80;99.90
5210;DHT22;2624;48.048;11.706;2024-03-29T05:27:03;2.90;99.90
5210;DHT22;2624;48.048;11.706;2024-03-29T05:32:07;2.90;99.90
5210;DHT22;2624;48.048;11.706;2024-03-29T05:37:09;2.90;99.90
5210;DHT22;2624;48.048;11.706;2024-03-29T05:42:12;2.90;99.90
5210;DHT22;2624;48.048;11.706;2024-03-29T05:47:14;2.80;99.90
5210;DHT22;2624;48.048;11.706;2024-03-29T05:52:16;2.90;99.90
5210;DHT22;2624;48.048;11.706;2024-03-29T05:57:20;2.80;99.90
5210;DHT22;2624;48.048;11.706;2024-03-29T06:02:25;3.10;99.90
5210;DHT22;2624;48.048;11.706;2024-03-29T06:07:27;3.10;99.90
5210;DHT22;2624;48.048;11.706;2024-03-29T06:12:33;3.00;99.90
5210;DHT22;2624;48.048;11.706;2024-03-29T06:17:36;3.10;99.90
5210;DHT22;2624;48.048;11.706;2024-03-29T06:22:38;3.20;99.90
5210;DHT22;2624;48.048;11.706;2024-03-29T06:27:42;3.40;99.90
5210;DHT22;2624;48.048;11.706;2024-03-29T06:32:48;3.50;99.90
5210;DHT22;2624;48.048;11.706;2024-03-29T06:37:49;3.70;99.90
5210;DHT22;2624;48.048;11.706;2024-03-29T06:42:53;3.80;99.90
5210;DHT22;2624;48.048;11.706;2024-03-29T06:47:56;3.80;99.90
5210;DHT22;2624;48.048;11.706;2024-03-29T06:52:58;4.00;99.90
5210;DHT22;2624;48.048;11.706;2024-03-29T06:58:02;4.10;99.90
5210;DHT22;2624;48.048;11.706;2024-03-29T07:03:04;4.00;99.90
5210;DHT22;2624;48.048;11.706;2024-03-29T07:08:06;4.40;99.90
5210;DHT22;2624;48.048;11.706;2024-03-29T07:13:09;4.80;99.90
5210;DHT22;2624;48.048;11.706;2024-03-29T07:18:11;5.30;99.90
5210;DHT22;2624;48.048;11.706;2024-03-29T07:23:13;5.50;99.90
5210;DHT22;2624;48.048;11.706;2024-03-29T07:28:16;5.40;99.90
5210;DHT22;2624;48.048;11.706;2024-03-29T07:33:18;5.80;99.90
5210;DHT22;2624;48.048;11.706;2024-03-29T07:38:22;6.20;99.90
5210;DHT22;2624;48.048;11.706;2024-03-29T07:43:25;6.50;99.90
5210;DHT22;2624;48.048;11.706;2024-03-29T07:48:27;6.50;99.90
5210;DHT22;2624;48.048;11.706;2024-03-29T07:53:29;7.20;99.90
5210;DHT22;2624;48.048;11.706;2024-03-29T07:58:32;7.60;99.90
5210;DHT22;2624;48.048;11.706;2024-03-29T08:03:34;7.80;99.90
5210;DHT22;2624;48.048;11.706;2024-03-29T08:08:37;8.30;99.90
5210;DHT22;2624;48.048;11.706;2024-03-29T08:13:40;8.60;99.90
5210;DHT22;2624;48.048;11.706;2024-03-29T08:18:42;8.60;99.90
5210;DHT22;2624;48.048;11.706;2024-03-29T08:23:47;8.80;99.90
5210;DHT22;2624;48.048;11.706;2024-03-29T08:28:52;9.10;99.90
5210;DHT22;2624;48.048;11.706;2024-03-29T08:33:54;9.50;99.90
5210;DHT22;2624;48.048;11.706;2024-03-29T08:38:56;9.00;99.90
5210;DHT22;2624;48.048;11.706;2024-03-29T08:43:59;9.30;99.90
5210;DHT22;2624;48.048;11.706;2024-03-29T08:49:01;8.90;99.90
5210;DHT22;2624;48.048;11.706;2024-03-29T08:54:03;9.90;99.90
5210;DHT22;2624;48.048;11.706;2024-03-29T08:59:07;10.20;99.90
5210;DHT22;2624;48.048;11.706;2024-03-29T09:04:10;10.70;99.90
5210;DHT22;2624;48.048;11.706;2024-03-29T09:09:12;10.70;99.90
5210;DHT22;2624;48.048;11.706;2024-03-29T09:14:15;12.10;99.90
5210;DHT22;2624;48.048;11.706;2024-03-29T09:19:17;12.60;99.90
5210;DHT22;2624;48.048;11.706;2024-03-29T09:24:19;12.60;99.90
5210;DHT22;2624;48.048;11.706;2024-03-29T09:29:24;12.80;99.90
5210;DHT22;2624;48.048;11.706;2024-03-29T09:34:26;13.10;99.90
5210;DHT22;2624;48.048;11.706;2024-03-29T09:39:28;13.70;99.90
5210;DHT22;2624;48.048;11.706;2024-03-29T09:44:32;14.20;97.70
5210;DHT22;2624;48.048;11.706;2024-03-29T09:49:35;14.60;95.40
5210;DHT22;2624;48.048;11.706;2024-03-29T09:54:37;14.00;95.60
5210;DHT22;2624;48.048;11.706;2024-03-29T09:59:40;13.90;95.30
5210;DHT22;2624;48.048;11.706;2024-03-29T10:04:42;14.00;96.30
5210;DHT22;2624;48.048;11.706;2024-03-29T10:09:47;14.20;95.50
5210;DHT22;2624;48.048;11.706;2024-03-29T10:14:50;14.20;94.40
5210;DHT22;2624;48.048;11.706;2024-03-29T10:20:00;13.90;95.60
5210;DHT22;2624;48.048;11.706;2024-03-29T10:25:02;14.10;95.60
5210;DHT22;2624;48.048;11.706;2024-03-29T10:30:08;14.30;95.80
5210;DHT22;2624;48.048;11.706;2024-03-29T10:35:10;14.10;96.00
5210;DHT22;2624;48.048;11.706;2024-03-29T10:40:12;14.60;95.30
5210;DHT22;2624;48.048;11.706;2024-03-29T10:45:17;14.90;95.00
5210;DHT22;2624;48.048;11.706;2024-03-29T10:50:21;15.80;93.30
5210;DHT22;2624;48.048;11.706;2024-03-29T10:55:24;16.30;91.40
5210;DHT22;2624;48.048;11.706;2024-03-29T11:00:28;16.60;90.70
5210;DHT22;2624;48.048;11.706;2024-03-29T11:05:32;15.70;92.60
5210;DHT22;2624;48.048;11.706;2024-03-29T11:10:38;16.10;90.30
5210;DHT22;2624;48.048;11.706;2024-03-29T11:15:45;16.10;90.30
5210;DHT22;2624;48.048;11.706;2024-03-29T11:20:48;16.30;90.30
5210;DHT22;2624;48.048;11.706;2024-03-29T11:25:53;16.70;89.60
5210;DHT22;2624;48.048;11.706;2024-03-29T11:31:00;16.90;86.10
5210;DHT22;2624;48.048;11.706;2024-03-29T11:36:10;16.40;87.90
5210;DHT22;2624;48.048;11.706;2024-03-29T11:41:14;16.80;88.30
5210;DHT22;2624;48.048;11.706;2024-03-29T11:46:18;16.80;88.20
5210;DHT22;2624;48.048;11.706;2024-03-29T11:51:22;17.20;90.50
5210;DHT22;2624;48.048;11.706;2024-03-29T11:56:25;17.40;86.70
5210;DHT22;2624;48.048;11.706;2024-03-29T12:01:28;18.20;81.70
5210;DHT22;2624;48.048;11.706;2024-03-29T12:06:30;18.00;86.10
5210;DHT22;2624;48.048;11.706;2024-03-29T12:11:32;18.70;82.90
5210;DHT22;2624;48.048;11.706;2024-03-29T12:16:44;19.50;81.40
5210;DHT22;2624;48.048;11.706;2024-03-29T12:21:46;19.30;77.90
5210;DHT22;2624;48.048;11.706;2024-03-29T12:26:48;18.50;83.20
5210;DHT22;2624;48.048;11.706;2024-03-29T12:31:58;19.80;78.50
5210;DHT22;2624;48.048;11.706;2024-03-29T12:37:01;20.00;76.90
5210;DHT22;2624;48.048;11.706;2024-03-29T12:42:04;19.90;77.10
5210;DHT22;2624;48.048;11.706;2024-03-29T12:47:08;20.00;73.40
5210;DHT22;2624;48.048;11.706;2024-03-29T12:52:10;20.30;73.70
5210;DHT22;2624;48.048;11.706;2024-03-29T12:57:12;20.30;74.40
5210;DHT22;2624;48.048;11.706;2024-03-29T13:02:15;20.70;74.60
5210;DHT22;2624;48.048;11.706;2024-03-29T13:07:17;20.80;68.90
5210;DHT22;2624;48.048;11.706;2024-03-29T13:12:19;20.40;69.30
5210;DHT22;2624;48.048;11.706;2024-03-29T13:17:22;20.30;72.20
5210;DHT22;2624;48.048;11.706;2024-03-29T13:22:24;20.20;70.30
5210;DHT22;2624;48.048;11.706;2024-03-29T13:27:27;20.50;72.30
5210;DHT22;2624;48.048;11.706;2024-03-29T13:32:30;20.20;71.40
5210;DHT22;2624;48.048;11.706;2024-03-29T13:37:33;20.60;68.50
5210;DHT22;2624;48.048;11.706;2024-03-29T13:42:35;20.50;68.20
5210;DHT22;2624;48.048;11.706;2024-03-29T13:47:39;20.50;69.00
5210;DHT22;2624;48.048;11.706;2024-03-29T13:52:42;20.70;68.60
5210;DHT22;2624;48.048;11.706;2024-03-29T13:57:44;21.00;67.30
5210;DHT22;2624;48.048;11.706;2024-03-29T14:02:48;20.70;68.10
5210;DHT22;2624;48.048;11.706;2024-03-29T14:07:50;20.70;67.40
5210;DHT22;2624;48.048;11.706;2024-03-29T14:12:52;20.80;67.60
5210;DHT22;2624;48.048;11.706;2024-03-29T14:17:56;21.10;64.40
5210;DHT22;2624;48.048;11.706;2024-03-29T14:22:58;20.80;71.20
5210;DHT22;2624;48.048;11.706;2024-03-29T14:28:05;20.30;65.50
5210;DHT22;2624;48.048;11.706;2024-03-29T14:33:08;20.40;67.80
5210;DHT22;2624;48.048;11.706;2024-03-29T14:38:10;20.40;68.00
5210;DHT22;2624;48.048;11.706;2024-03-29T14:43:14;20.40;65.00
5210;DHT22;2624;48.048;11.706;2024-03-29T14:48:17;20.40;65.90
5210;DHT22;2624;48.048;11.706;2024-03-29T14:53:19;20.10;67.20
5210;DHT22;2624;48.048;11.706;2024-03-29T14:58:21;19.90;65.80
5210;DHT22;2624;48.048;11.706;2024-03-29T15:03:24;20.20;66.10
5210;DHT22;2624;48.048;11.706;2024-03-29T15:08:27;20.20;65.90
5210;DHT22;2624;48.048;11.706;2024-03-29T15:13:29;20.00;64.60
5210;DHT22;2624;48.048;11.706;2024-03-29T15:18:32;20.00;68.40
5210;DHT22;2624;48.048;11.706;2024-03-29T15:23:34;19.80;64.30
5210;DHT22;2624;48.048;11.706;2024-03-29T15:28:37;19.60;65.10
5210;DHT22;2624;48.048;11.706;2024-03-29T15:33:57;19.50;66.30
5210;DHT22;2624;48.048;11.706;2024-03-29T15:39:00;19.30;71.10
5210;DHT22;2624;48.048;11.706;2024-03-29T15:44:09;19.30;69.60
5210;DHT22;2624;48.048;11.706;2024-03-29T15:49:13;19.40;67.10
5210;DHT22;2624;48.048;11.706;2024-03-29T15:54:15;19.50;65.00
5210;DHT22;2624;48.048;11.706;2024-03-29T15:59:17;19.60;65.60
5210;DHT22;2624;48.048;11.706;2024-03-29T16:04:20;19.40;64.40
5210;DHT22;2624;48.048;11.706;2024-03-29T16:09:22;19.30;65.80
5210;DHT22;2624;48.048;11.706;2024-03-29T16:14:24;19.30;68.50
5210;DHT22;2624;48.048;11.706;2024-03-29T16:19:30;18.90;71.20
5210;DHT22;2624;48.048;11.706;2024-03-29T16:24:32;18.90;66.80
5210;DHT22;2624;48.048;11.706;2024-03-29T16:29:34;18.80;66.50
5210;DHT22;2624;48.048;11.706;2024-03-29T16:34:37;18.60;74.30
5210;DHT22;2624;48.048;11.706;2024-03-29T16:39:40;18.50;68.00
5210;DHT22;2624;48.048;11.706;2024-03-29T16:44:43;18.40;68.00
5210;DHT22;2624;48.048;11.706;2024-03-29T16:49:46;18.50;66.50
5210;DHT22;2624;48.048;11.706;2024-03-29T16:54:48;18.30;72.60
5210;DHT22;2624;48.048;11.706;2024-03-29T16:59:50;18.20;67.00
5210;DHT22;2624;48.048;11.706;2024-03-29T17:04:53;18.10;68.30
5210;DHT22;2624;48.048;11.706;2024-03-29T17:09:55;18.00;70.10
5210;DHT22;2624;48.048;11.706;2024-03-29T17:14:58;17.80;69.50
5210;DHT22;2624;48.048;11.706;2024-03-29T17:20:03;17.60;72.00
5210;DHT22;2624;48.048;11.706;2024-03-29T17:25:05;17.50;72.10
5210;DHT22;2624;48.048;11.706;2024-03-29T17:30:08;17.30;72.30
5210;DHT22;2624;48.048;11.706;2024-03-29T17:35:12;17.20;70.40
5210;DHT22;2624;48.048;11.706;2024-03-29T17:40:14;17.10;70.10
5210;DHT22;2624;48.048;11.706;2024-03-29T17:45:16;17.10;71.40
5210;DHT22;2624;48.048;11.706;2024-03-29T17:50:19;16.90;71.20
5210;DHT22;2624;48.048;11.706;2024-03-29T17:55:21;16.80;69.80
5210;DHT22;2624;48.048;11.706;2024-03-29T18:00:23;16.80;72.30
5210;DHT22;2624;48.048;11.706;2024-03-29T18:05:26;16.70;70.40
5210;DHT22;2624;48.048;11.706;2024-03-29T18:10:28;16.70;73.10
5210;DHT22;2624;48.048;11.706;2024-03-29T18:15:30;16.60;70.30
5210;DHT22;2624;48.048;11.706;2024-03-29T18:20:34;16.60;71.10
5210;DHT22;2624;48.048;11.706;2024-03-29T18:25:36;16.50;70.10
5210;DHT22;2624;48.048;11.706;2024-03-29T18:30:38;16.50;73.90
5210;DHT22;2624;48.048;11.706;2024-03-29T18:35:42;16.40;73.70
5210;DHT22;2624;48.048;11.706;2024-03-29T18:40:43;16.30;75.00
5210;DHT22;2624;48.048;11.706;2024-03-29T18:45:46;16.20;73.40
5210;DHT22;2624;48.048;11.706;2024-03-29T18:50:56;16.20;68.40
5210;DHT22;2624;48.048;11.706;2024-03-29T18:55:59;16.20;71.30
5210;DHT22;2624;48.048;11.706;2024-03-29T19:01:01;16.10;70.20
5210;DHT22;2624;48.048;11.706;2024-03-29T19:06:05;15.90;74.80
5210;DHT22;2624;48.048;11.706;2024-03-29T19:11:07;15.80;72.50
5210;DHT22;2624;48.048;11.706;2024-03-29T19:16:09;15.80;74.20
5210;DHT22;2624;48.048;11.706;2024-03-29T19:21:12;15.80;79.90
5210;DHT22;2624;48.048;11.706;2024-03-29T19:26:14;15.60;76.80
5210;DHT22;2624;48.048;11.706;2024-03-29T19:31:16;15.40;79.20
5210;DHT22;2624;48.048;11.706;2024-03-29T19:36:19;15.30;79.10
5210;DHT22;2624;48.048;11.706;2024-03-29T19:41:21;15.40;78.40
5210;DHT22;2624;48.048;11.706;2024-03-29T19:46:23;15.30;75.90
5210;DHT22;2624;48.048;11.706;2024-03-29T19:51:26;15.30;74.30
5210;DHT22;2624;48.048;11.706;2024-03-29T19:56:28;15.20;74.80
5210;DHT22;2624;48.048;11.706;2024-03-29T20:01:30;15.10;75.20
5210;DHT22;2624;48.048;11.706;2024-03-29T20:06:33;15.00;76.00
5210;DHT22;2624;48.048;11.706;2024-03-29T20:11:35;14.90;74.40
5210;DHT22;2624;48.048;11.706;2024-03-29T20:16:37;14.90;74.30
5210;DHT22;2624;48.048;11.706;2024-03-29T20:21:40;14.90;75.40
5210;DHT22;2624;48.048;11.706;2024-03-29T20:26:42;14.80;74.60
5210;DHT22;2624;48.048;11.706;2024-03-29T20:31:44;14.90;76.00
5210;DHT22;2624;48.048;11.706;2024-03-29T20:36:49;14.80;75.70
5210;DHT22;2624;48.048;11.706;2024-03-29T20:41:51;15.00;76.40
5210;DHT22;2624;48.048;11.706;2024-03-29T20:46:53;14.80;75.60
5210;DHT22;2624;48.048;11.706;2024-03-29T20:51:56;14.70;75.90
5210;DHT22;2624;48.048;11.706;2024-03-29T20:56:58;14.70;76.20
5210;DHT22;2624;48.048;11.706;2024-03-29T21:02:00;14.70;73.80
5210;DHT22;2624;48.048;11.706;2024-03-29T21:07:21;14.50;74.00
5210;DHT22;2624;48.048;11.706;2024-03-29T21:12:23;14.60;76.50
5210;DHT22;2624;48.048;11.706;2024-03-29T21:17:25;14.60;75.80
5210;DHT22;2624;48.048;11.706;2024-03-29T21:22:28;14.70;77.90
5210;DHT22;2624;48.048;11.706;2024-03-29T21:27:30;14.60;75.10
5210;DHT22;2624;48.048;11.706;2024-03-29T21:32:32;14.50;79.10
5210;DHT22;2624;48.048;11.706;2024-03-29T21:37:36;14.50;74.70
5210;DHT22;2624;48.048;11.706;2024-03-29T21:42:38;14.40;75.50
5210;DHT22;2624;48.048;11.706;2024-03-29T21:47:40;14.40;77.10
5210;DHT22;2624;48.048;11.706;2024-03-29T21:52:43;14.20;75.50
5210;DHT22;2624;48.048;11.706;2024-03-29T21:57:45;14.20;76.40
5210;DHT22;2624;48.048;11.706;2024-03-29T22:02:49;14.20;88.60
5210;DHT22;2624;48.048;11.706;2024-03-29T22:07:52;14.10;78.60
5210;DHT22;2624;48.048;11.706;2024-03-29T22:12:54;14.10;89.60
5210;DHT22;2624;48.048;11.706;2024-03-29T22:17:56;14.20;89.80
5210;DHT22;2624;48.048;11.706;2024-03-29T22:22:59;13.90;84.50
5210;DHT22;2624;48.048;11.706;2024-03-29T22:28:01;14.00;81.00
5210;DHT22;2624;48.048;11.706;2024-03-29T22:33:03;13.80;77.90
5210;DHT22;2624;48.048;11.706;2024-03-29T22:38:07;13.90;76.50
5210;DHT22;2624;48.048;11.706;2024-03-29T22:43:09;13.80;80.90
5210;DHT22;2624;48.048;11.706;2024-03-29T22:48:10;13.70;78.90
5210;DHT22;2624;48.048;11.706;2024-03-29T22:53:18;13.80;90.60
5210;DHT22;2624;48.048;11.706;2024-03-29T22:58:20;13.70;84.40
5210;DHT22;2624;48.048;11.706;2024-03-29T23:03:22;13.70;91.00
5210;DHT22;2624;48.048;11.706;2024-03-29T23:08:25;13.70;92.00
5210;DHT22;2624;48.048;11.706;2024-03-29T23:13:27;13.70;89.00
5210;DHT22;2624;48.048;11.706;2024-03-29T23:18:29;13.60;92.50
5210;DHT22;2624;48.048;11.706;2024-03-29T23:23:32;13.50;89.50
5210;DHT22;2624;48.048;11.706;2024-03-29T23:28:34;13.00;86.70
5210;DHT22;2624;48.048;11.706;2024-03-29T23:33:37;12.90;85.60
5210;DHT22;2624;48.048;11.706;2024-03-29T23:38:40;12.90;86.00
5210;DHT22;2624;48.048;11.706;2024-03-29T23:43:42;12.80;86.00
5210;DHT22;2624;48.048;11.706;2024-03-29T23:48:44;12.80;83.20
5210;DHT22;2624;48.048;11.706;2024-03-29T23:53:47;13.00;87.10
5210;DHT22;2624;48.048;11.706;2024-03-29T23:58:49;13.10;83.90
